This is the latest recevied weather packets stored in our database for station/object KC3QLX. If no packets are shown the sender has not sent any weather packets the latest 10 day(s).
| Time | Temp. | Humidity | Pressure | Rain* | Wind** | Luminosity | Snow |
|---|---|---|---|---|---|---|---|
| 1778171978 | 15.56° C | 44% | 1010.4 hPa | 0 mm | - | 701 W/m² | - |
| 1778171676 | 15.56° C | 41% | 1010.4 hPa | 0 mm | - | 702 W/m² | - |
| 1778171373 | 15.56° C | 42% | 1010.5 hPa | 0 mm | - | 730 W/m² | - |
| 1778171067 | 15.56° C | 46% | 1010.5 hPa | 0 mm | - | 733 W/m² | - |
| 1778170766 | 15.56° C | 43% | 1010.6 hPa | 0 mm | - | 752 W/m² | - |
| 1778170461 | 15° C | 44% | 1010.4 hPa | 0 mm | - | 747 W/m² | - |
| 1778170158 | 15° C | 42% | 1010.6 hPa | 0 mm | - | 753 W/m² | - |
| 1778169854 | 15° C | 43% | 1010.8 hPa | 0 mm | - | 768 W/m² | - |
| 1778169550 | 15° C | 46% | 1010.8 hPa | 0 mm | - | 783 W/m² | - |
| 1778169246 | 14.44° C | 40% | 1011 hPa | 0 mm | - | 784 W/m² | - |
| 1778168943 | 15.56° C | 41% | 1011.1 hPa | 0 mm | - | 788 W/m² | - |
| 1778168640 | 15° C | 43% | 1011 hPa | 0 mm | - | 794 W/m² | - |
| 1778168391 | 15° C | 47% | 1011.2 hPa | 0 mm | - | 811 W/m² | - |
| 1778168337 | 15° C | 47% | 1011.2 hPa | 0 mm | - | 811 W/m² | - |
| 1778168180 | 14.44° C | 42% | 1011 hPa | 0 mm | - | 827 W/m² | - |
| 1778168034 | 14.44° C | 42% | 1011 hPa | 0 mm | - | 827 W/m² | - |
| 1778167937 | 14.44° C | 44% | 1011.3 hPa | 0 mm | - | 818 W/m² | - |
| 1778167730 | 14.44° C | 44% | 1011.3 hPa | 0 mm | - | 818 W/m² | - |
| 1778167560 | 13.89° C | 49% | 1011.5 hPa | 0 mm | - | 805 W/m² | - |
| 1778167427 | 13.89° C | 44% | 1011.1 hPa | 0 mm | - | 856 W/m² | - |
| 1778167123 | 13.89° C | 49% | 1011.5 hPa | 0 mm | - | 805 W/m² | - |
| 1778166819 | 13.89° C | 52% | 1011.4 hPa | 0 mm | - | 823 W/m² | - |
| 1778166516 | 13.89° C | 51% | 1011.6 hPa | 0 mm | - | 835 W/m² | - |
| 1778166213 | 13.89° C | 53% | 1011.6 hPa | 0 mm | - | 867 W/m² | - |
| 1778165909 | 13.33° C | 46% | 1011.6 hPa | 0 mm | - | 866 W/m² | - |
* Rain latest hour (hover to see other rain measurements)
** Current wind speed in m/s (hover to see current wind gust speed)